sensor_id;sensor_type;location;lat;lon;timestamp;P1;durP1;ratioP1;P2;durP2;ratioP2
48911;SDS011;34722;52.108;5.044;2023-03-31T05:13:30;17.63;;;4.75;;
48911;SDS011;34722;52.108;5.044;2023-03-31T05:15:57;17.10;;;4.82;;
48911;SDS011;34722;52.108;5.044;2023-03-31T05:18:30;16.98;;;5.15;;
48911;SDS011;34722;52.108;5.044;2023-03-31T05:20:56;13.90;;;4.18;;
48911;SDS011;34722;52.108;5.044;2023-03-31T05:23:22;12.93;;;4.30;;
48911;SDS011;34722;52.108;5.044;2023-03-31T05:25:47;21.83;;;6.05;;
48911;SDS011;34722;52.108;5.044;2023-03-31T05:28:13;15.63;;;5.03;;
48911;SDS011;34722;52.108;5.044;2023-03-31T05:30:39;18.30;;;3.97;;
48911;SDS011;34722;52.108;5.044;2023-03-31T05:33:04;13.57;;;4.75;;
48911;SDS011;34722;52.108;5.044;2023-03-31T05:35:30;26.60;;;3.80;;
48911;SDS011;34722;52.108;5.044;2023-03-31T05:37:56;13.55;;;3.30;;
48911;SDS011;34722;52.108;5.044;2023-03-31T05:40:22;24.98;;;4.97;;
48911;SDS011;34722;52.108;5.044;2023-03-31T05:42:47;15.02;;;3.63;;
48911;SDS011;34722;52.108;5.044;2023-03-31T05:45:13;9.45;;;3.33;;
48911;SDS011;34722;52.108;5.044;2023-03-31T05:47:39;19.55;;;5.47;;
48911;SDS011;34722;52.108;5.044;2023-03-31T05:50:04;13.75;;;3.05;;
48911;SDS011;34722;52.108;5.044;2023-03-31T05:52:32;17.35;;;4.15;;
48911;SDS011;34722;52.108;5.044;2023-03-31T05:55:00;17.20;;;3.50;;
48911;SDS011;34722;52.108;5.044;2023-03-31T05:57:28;15.30;;;3.97;;
48911;SDS011;34722;52.108;5.044;2023-03-31T05:59:54;18.38;;;3.30;;
48911;SDS011;34722;52.108;5.044;2023-03-31T06:05:26;15.15;;;3.67;;
48911;SDS011;34722;52.108;5.044;2023-03-31T06:07:52;12.00;;;3.55;;
48911;SDS011;34722;52.108;5.044;2023-03-31T06:10:18;16.15;;;3.80;;
48911;SDS011;34722;52.108;5.044;2023-03-31T06:12:44;13.63;;;3.63;;
48911;SDS011;34722;52.108;5.044;2023-03-31T06:15:09;9.63;;;2.88;;
48911;SDS011;34722;52.108;5.044;2023-03-31T06:17:35;10.65;;;2.90;;
48911;SDS011;34722;52.108;5.044;2023-03-31T06:20:01;9.23;;;2.80;;
48911;SDS011;34722;52.108;5.044;2023-03-31T06:25:57;6.20;;;2.60;;
48911;SDS011;34722;52.108;5.044;2023-03-31T06:28:26;10.23;;;2.75;;
48911;SDS011;34722;52.108;5.044;2023-03-31T06:34:14;7.53;;;2.65;;
48911;SDS011;34722;52.108;5.044;2023-03-31T06:36:40;12.50;;;3.55;;
48911;SDS011;34722;52.108;5.044;2023-03-31T06:39:12;11.52;;;2.70;;
48911;SDS011;34722;52.108;5.044;2023-03-31T06:41:37;14.15;;;5.68;;
48911;SDS011;34722;52.108;5.044;2023-03-31T06:44:03;11.27;;;3.10;;
48911;SDS011;34722;52.108;5.044;2023-03-31T06:46:29;7.53;;;2.53;;
48911;SDS011;34722;52.108;5.044;2023-03-31T07:06:49;12.32;;;3.63;;
48911;SDS011;34722;52.108;5.044;2023-03-31T07:09:15;7.40;;;2.05;;
48911;SDS011;34722;52.108;5.044;2023-03-31T07:11:42;10.98;;;2.00;;
48911;SDS011;34722;52.108;5.044;2023-03-31T07:14:08;11.18;;;2.75;;
48911;SDS011;34722;52.108;5.044;2023-03-31T07:16:34;8.77;;;2.40;;
48911;SDS011;34722;52.108;5.044;2023-03-31T07:28:20;8.70;;;2.55;;
48911;SDS011;34722;52.108;5.044;2023-03-31T07:30:46;6.15;;;2.42;;
48911;SDS011;34722;52.108;5.044;2023-03-31T07:33:11;9.77;;;2.72;;
48911;SDS011;34722;52.108;5.044;2023-03-31T07:35:38;8.18;;;2.63;;
48911;SDS011;34722;52.108;5.044;2023-03-31T07:38:04;6.53;;;2.30;;
48911;SDS011;34722;52.108;5.044;2023-03-31T07:40:32;7.28;;;2.40;;
48911;SDS011;34722;52.108;5.044;2023-03-31T07:42:58;9.85;;;2.78;;
48911;SDS011;34722;52.108;5.044;2023-03-31T07:45:24;15.63;;;2.80;;
48911;SDS011;34722;52.108;5.044;2023-03-31T07:47:50;8.73;;;2.90;;
48911;SDS011;34722;52.108;5.044;2023-03-31T07:50:16;7.82;;;3.22;;
48911;SDS011;34722;52.108;5.044;2023-03-31T07:52:43;8.68;;;3.50;;
48911;SDS011;34722;52.108;5.044;2023-03-31T07:55:09;11.32;;;4.05;;
48911;SDS011;34722;52.108;5.044;2023-03-31T07:57:35;14.73;;;4.78;;
48911;SDS011;34722;52.108;5.044;2023-03-31T08:00:02;14.02;;;4.07;;
48911;SDS011;34722;52.108;5.044;2023-03-31T08:02:32;12.13;;;5.70;;
48911;SDS011;34722;52.108;5.044;2023-03-31T08:04:58;12.85;;;4.70;;
48911;SDS011;34722;52.108;5.044;2023-03-31T08:07:24;14.23;;;5.47;;
48911;SDS011;34722;52.108;5.044;2023-03-31T08:09:51;16.13;;;4.82;;
48911;SDS011;34722;52.108;5.044;2023-03-31T08:12:16;9.77;;;4.75;;
48911;SDS011;34722;52.108;5.044;2023-03-31T08:14:42;9.13;;;5.10;;
48911;SDS011;34722;52.108;5.044;2023-03-31T08:17:08;15.80;;;7.03;;
48911;SDS011;34722;52.108;5.044;2023-03-31T08:19:34;16.15;;;5.72;;
48911;SDS011;34722;52.108;5.044;2023-03-31T08:22:00;17.33;;;5.40;;
48911;SDS011;34722;52.108;5.044;2023-03-31T08:24:28;16.33;;;6.13;;
48911;SDS011;34722;52.108;5.044;2023-03-31T08:26:54;15.68;;;5.38;;
48911;SDS011;34722;52.108;5.044;2023-03-31T08:29:20;18.63;;;7.85;;
48911;SDS011;34722;52.108;5.044;2023-03-31T08:31:45;15.65;;;7.22;;
48911;SDS011;34722;52.108;5.044;2023-03-31T08:34:11;13.02;;;6.80;;
48911;SDS011;34722;52.108;5.044;2023-03-31T08:36:36;18.00;;;7.43;;
48911;SDS011;34722;52.108;5.044;2023-03-31T08:39:02;15.93;;;6.68;;
48911;SDS011;34722;52.108;5.044;2023-03-31T08:44:18;18.50;;;8.45;;
48911;SDS011;34722;52.108;5.044;2023-03-31T08:46:52;26.92;;;7.97;;
48911;SDS011;34722;52.108;5.044;2023-03-31T08:49:20;18.23;;;7.18;;
48911;SDS011;34722;52.108;5.044;2023-03-31T08:51:55;29.35;;;8.55;;
48911;SDS011;34722;52.108;5.044;2023-03-31T08:54:32;28.45;;;6.68;;
48911;SDS011;34722;52.108;5.044;2023-03-31T08:57:10;33.58;;;7.05;;
48911;SDS011;34722;52.108;5.044;2023-03-31T08:59:46;28.65;;;6.97;;
48911;SDS011;34722;52.108;5.044;2023-03-31T09:10:39;26.90;;;7.07;;
48911;SDS011;34722;52.108;5.044;2023-03-31T09:13:23;25.60;;;6.82;;
48911;SDS011;34722;52.108;5.044;2023-03-31T09:16:12;27.50;;;7.57;;
48911;SDS011;34722;52.108;5.044;2023-03-31T09:18:41;25.35;;;6.18;;
48911;SDS011;34722;52.108;5.044;2023-03-31T09:21:20;25.63;;;5.88;;
48911;SDS011;34722;52.108;5.044;2023-03-31T09:27:05;29.42;;;5.72;;
48911;SDS011;34722;52.108;5.044;2023-03-31T09:29:52;22.70;;;4.90;;
48911;SDS011;34722;52.108;5.044;2023-03-31T09:32:29;19.65;;;4.43;;
48911;SDS011;34722;52.108;5.044;2023-03-31T09:35:18;22.85;;;4.28;;
48911;SDS011;34722;52.108;5.044;2023-03-31T09:37:47;22.00;;;4.40;;
48911;SDS011;34722;52.108;5.044;2023-03-31T09:40:15;18.90;;;4.60;;
48911;SDS011;34722;52.108;5.044;2023-03-31T09:42:53;12.23;;;4.72;;
48911;SDS011;34722;52.108;5.044;2023-03-31T09:45:24;18.27;;;4.32;;
48911;SDS011;34722;52.108;5.044;2023-03-31T09:48:06;20.80;;;4.43;;
48911;SDS011;34722;52.108;5.044;2023-03-31T09:50:47;19.20;;;4.78;;
48911;SDS011;34722;52.108;5.044;2023-03-31T09:53:20;23.58;;;4.68;;
48911;SDS011;34722;52.108;5.044;2023-03-31T09:55:54;15.70;;;3.58;;
48911;SDS011;34722;52.108;5.044;2023-03-31T09:58:25;20.38;;;4.90;;
48911;SDS011;34722;52.108;5.044;2023-03-31T10:00:58;22.27;;;4.85;;
48911;SDS011;34722;52.108;5.044;2023-03-31T10:03:30;20.13;;;4.28;;
48911;SDS011;34722;52.108;5.044;2023-03-31T10:06:01;25.65;;;5.53;;
48911;SDS011;34722;52.108;5.044;2023-03-31T10:08:40;19.40;;;4.80;;
48911;SDS011;34722;52.108;5.044;2023-03-31T10:11:12;19.60;;;4.60;;
48911;SDS011;34722;52.108;5.044;2023-03-31T10:19:09;17.90;;;4.32;;
48911;SDS011;34722;52.108;5.044;2023-03-31T10:21:41;16.63;;;5.30;;
48911;SDS011;34722;52.108;5.044;2023-03-31T10:27:28;16.63;;;4.53;;
48911;SDS011;34722;52.108;5.044;2023-03-31T10:29:56;12.75;;;4.00;;
48911;SDS011;34722;52.108;5.044;2023-03-31T10:32:44;21.60;;;4.57;;
48911;SDS011;34722;52.108;5.044;2023-03-31T10:35:23;18.65;;;5.72;;
48911;SDS011;34722;52.108;5.044;2023-03-31T10:37:53;20.50;;;4.35;;
48911;SDS011;34722;52.108;5.044;2023-03-31T10:40:25;11.98;;;3.00;;
48911;SDS011;34722;52.108;5.044;2023-03-31T10:43:40;13.57;;;3.50;;
48911;SDS011;34722;52.108;5.044;2023-03-31T10:46:07;16.40;;;4.05;;
48911;SDS011;34722;52.108;5.044;2023-03-31T10:48:34;22.23;;;3.70;;
48911;SDS011;34722;52.108;5.044;2023-03-31T10:53:53;18.80;;;3.70;;
48911;SDS011;34722;52.108;5.044;2023-03-31T11:29:32;15.88;;;4.28;;
48911;SDS011;34722;52.108;5.044;2023-03-31T11:37:27;20.70;;;5.50;;
48911;SDS011;34722;52.108;5.044;2023-03-31T11:40:27;22.83;;;6.28;;
48911;SDS011;34722;52.108;5.044;2023-03-31T11:48:16;17.95;;;4.22;;
48911;SDS011;34722;52.108;5.044;2023-03-31T11:51:04;19.50;;;4.70;;
48911;SDS011;34722;52.108;5.044;2023-03-31T11:56:02;12.10;;;3.25;;
48911;SDS011;34722;52.108;5.044;2023-03-31T12:03:58;6.53;;;2.17;;
48911;SDS011;34722;52.108;5.044;2023-03-31T12:06:29;15.63;;;3.33;;
48911;SDS011;34722;52.108;5.044;2023-03-31T12:11:52;14.52;;;4.50;;
48911;SDS011;34722;52.108;5.044;2023-03-31T12:17:16;7.18;;;1.90;;
48911;SDS011;34722;52.108;5.044;2023-03-31T12:19:48;5.72;;;1.88;;
48911;SDS011;34722;52.108;5.044;2023-03-31T12:24:47;5.95;;;2.20;;
48911;SDS011;34722;52.108;5.044;2023-03-31T12:27:29;8.32;;;2.60;;
48911;SDS011;34722;52.108;5.044;2023-03-31T12:35:23;7.40;;;2.30;;
48911;SDS011;34722;52.108;5.044;2023-03-31T12:40:40;10.73;;;2.67;;
48911;SDS011;34722;52.108;5.044;2023-03-31T12:51:29;11.93;;;2.63;;
48911;SDS011;34722;52.108;5.044;2023-03-31T12:57:25;12.27;;;3.53;;
48911;SDS011;34722;52.108;5.044;2023-03-31T13:00:08;15.05;;;3.13;;
48911;SDS011;34722;52.108;5.044;2023-03-31T13:02:44;13.05;;;3.70;;
48911;SDS011;34722;52.108;5.044;2023-03-31T13:08:04;12.93;;;3.25;;
48911;SDS011;34722;52.108;5.044;2023-03-31T13:10:32;15.32;;;5.20;;
48911;SDS011;34722;52.108;5.044;2023-03-31T13:13:18;15.65;;;4.35;;
48911;SDS011;34722;52.108;5.044;2023-03-31T13:15:55;15.48;;;4.45;;
48911;SDS011;34722;52.108;5.044;2023-03-31T13:18:22;13.98;;;4.30;;
48911;SDS011;34722;52.108;5.044;2023-03-31T13:21:04;15.57;;;4.72;;
48911;SDS011;34722;52.108;5.044;2023-03-31T13:23:33;17.70;;;3.72;;
48911;SDS011;34722;52.108;5.044;2023-03-31T13:26:03;20.15;;;4.60;;
48911;SDS011;34722;52.108;5.044;2023-03-31T13:33:46;14.52;;;3.40;;
48911;SDS011;34722;52.108;5.044;2023-03-31T14:06:36;7.72;;;2.90;;
48911;SDS011;34722;52.108;5.044;2023-03-31T14:09:07;6.22;;;2.28;;
48911;SDS011;34722;52.108;5.044;2023-03-31T14:11:35;12.27;;;2.80;;
48911;SDS011;34722;52.108;5.044;2023-03-31T14:14:12;7.80;;;3.08;;
48911;SDS011;34722;52.108;5.044;2023-03-31T14:16:44;14.32;;;2.90;;
48911;SDS011;34722;52.108;5.044;2023-03-31T14:22:16;10.10;;;2.60;;
48911;SDS011;34722;52.108;5.044;2023-03-31T14:24:48;9.57;;;2.28;;
48911;SDS011;34722;52.108;5.044;2023-03-31T14:35:51;15.10;;;3.55;;
48911;SDS011;34722;52.108;5.044;2023-03-31T14:38:26;8.77;;;3.42;;
48911;SDS011;34722;52.108;5.044;2023-03-31T14:40:53;8.70;;;3.03;;
48911;SDS011;34722;52.108;5.044;2023-03-31T14:43:32;10.27;;;3.58;;
48911;SDS011;34722;52.108;5.044;2023-03-31T14:46:00;8.43;;;3.50;;
48911;SDS011;34722;52.108;5.044;2023-03-31T14:48:32;9.38;;;2.58;;
48911;SDS011;34722;52.108;5.044;2023-03-31T14:51:29;5.32;;;2.60;;
48911;SDS011;34722;52.108;5.044;2023-03-31T14:53:55;6.15;;;3.92;;
48911;SDS011;34722;52.108;5.044;2023-03-31T14:56:29;7.15;;;3.50;;
48911;SDS011;34722;52.108;5.044;2023-03-31T14:59:05;6.93;;;4.50;;
48911;SDS011;34722;52.108;5.044;2023-03-31T15:01:32;8.80;;;3.20;;
48911;SDS011;34722;52.108;5.044;2023-03-31T15:04:08;7.35;;;4.00;;
48911;SDS011;34722;52.108;5.044;2023-03-31T15:06:37;5.22;;;3.50;;
48911;SDS011;34722;52.108;5.044;2023-03-31T15:09:05;11.27;;;3.65;;
48911;SDS011;34722;52.108;5.044;2023-03-31T15:11:36;6.20;;;3.33;;
48911;SDS011;34722;52.108;5.044;2023-03-31T15:14:05;11.35;;;4.03;;
48911;SDS011;34722;52.108;5.044;2023-03-31T15:19:22;8.98;;;4.32;;
48911;SDS011;34722;52.108;5.044;2023-03-31T15:22:04;6.63;;;2.92;;
48911;SDS011;34722;52.108;5.044;2023-03-31T15:24:38;5.63;;;2.38;;
48911;SDS011;34722;52.108;5.044;2023-03-31T15:27:06;7.00;;;3.00;;
48911;SDS011;34722;52.108;5.044;2023-03-31T15:29:39;11.35;;;3.47;;
48911;SDS011;34722;52.108;5.044;2023-03-31T15:32:10;12.63;;;4.00;;
48911;SDS011;34722;52.108;5.044;2023-03-31T15:34:40;9.70;;;3.60;;
48911;SDS011;34722;52.108;5.044;2023-03-31T15:37:07;5.35;;;3.33;;
48911;SDS011;34722;52.108;5.044;2023-03-31T15:39:34;5.18;;;3.42;;
48911;SDS011;34722;52.108;5.044;2023-03-31T15:42:02;6.60;;;3.55;;
48911;SDS011;34722;52.108;5.044;2023-03-31T15:47:27;9.90;;;3.65;;
48911;SDS011;34722;52.108;5.044;2023-03-31T15:49:57;11.52;;;3.75;;
48911;SDS011;34722;52.108;5.044;2023-03-31T15:52:34;5.82;;;3.05;;
48911;SDS011;34722;52.108;5.044;2023-03-31T15:57:46;13.38;;;3.58;;
48911;SDS011;34722;52.108;5.044;2023-03-31T16:02:58;9.35;;;3.67;;
48911;SDS011;34722;52.108;5.044;2023-03-31T16:08:31;9.63;;;4.65;;
48911;SDS011;34722;52.108;5.044;2023-03-31T16:11:09;9.07;;;3.90;;
48911;SDS011;34722;52.108;5.044;2023-03-31T16:13:43;9.15;;;4.18;;
48911;SDS011;34722;52.108;5.044;2023-03-31T16:16:15;10.40;;;4.10;;
48911;SDS011;34722;52.108;5.044;2023-03-31T16:21:39;7.50;;;3.05;;
48911;SDS011;34722;52.108;5.044;2023-03-31T16:24:08;6.88;;;3.50;;
48911;SDS011;34722;52.108;5.044;2023-03-31T16:26:34;6.45;;;3.75;;
48911;SDS011;34722;52.108;5.044;2023-03-31T16:29:09;10.50;;;5.00;;
48911;SDS011;34722;52.108;5.044;2023-03-31T16:31:47;7.07;;;4.43;;
48911;SDS011;34722;52.108;5.044;2023-03-31T16:37:35;12.10;;;4.78;;
48911;SDS011;34722;52.108;5.044;2023-03-31T16:40:01;7.03;;;4.28;;
48911;SDS011;34722;52.108;5.044;2023-03-31T16:42:28;6.82;;;4.70;;
48911;SDS011;34722;52.108;5.044;2023-03-31T16:44:54;7.82;;;4.18;;
48911;SDS011;34722;52.108;5.044;2023-03-31T16:47:20;9.57;;;4.72;;
48911;SDS011;34722;52.108;5.044;2023-03-31T16:49:46;10.07;;;4.28;;
48911;SDS011;34722;52.108;5.044;2023-03-31T16:52:12;7.45;;;4.40;;
48911;SDS011;34722;52.108;5.044;2023-03-31T16:54:37;7.20;;;5.00;;
48911;SDS011;34722;52.108;5.044;2023-03-31T16:57:03;10.20;;;4.95;;
48911;SDS011;34722;52.108;5.044;2023-03-31T16:59:29;9.70;;;5.43;;
48911;SDS011;34722;52.108;5.044;2023-03-31T17:01:54;11.25;;;5.60;;
48911;SDS011;34722;52.108;5.044;2023-03-31T17:04:20;9.35;;;5.80;;
48911;SDS011;34722;52.108;5.044;2023-03-31T17:06:47;12.25;;;5.43;;
48911;SDS011;34722;52.108;5.044;2023-03-31T17:09:12;8.77;;;5.15;;
48911;SDS011;34722;52.108;5.044;2023-03-31T17:11:38;9.40;;;5.82;;
48911;SDS011;34722;52.108;5.044;2023-03-31T17:14:21;11.60;;;5.35;;
48911;SDS011;34722;52.108;5.044;2023-03-31T17:16:47;10.23;;;5.90;;
48911;SDS011;34722;52.108;5.044;2023-03-31T17:19:13;10.57;;;5.53;;
48911;SDS011;34722;52.108;5.044;2023-03-31T17:21:41;10.70;;;5.18;;
48911;SDS011;34722;52.108;5.044;2023-03-31T17:24:07;11.85;;;5.68;;
48911;SDS011;34722;52.108;5.044;2023-03-31T17:26:34;10.90;;;5.18;;
48911;SDS011;34722;52.108;5.044;2023-03-31T17:29:01;12.57;;;5.45;;
48911;SDS011;34722;52.108;5.044;2023-03-31T17:31:27;10.48;;;5.00;;
48911;SDS011;34722;52.108;5.044;2023-03-31T17:33:55;16.15;;;5.72;;
48911;SDS011;34722;52.108;5.044;2023-03-31T17:36:22;8.23;;;5.43;;
48911;SDS011;34722;52.108;5.044;2023-03-31T17:38:48;12.60;;;7.55;;
48911;SDS011;34722;52.108;5.044;2023-03-31T17:41:14;10.52;;;6.15;;
48911;SDS011;34722;52.108;5.044;2023-03-31T17:43:53;15.77;;;6.30;;
48911;SDS011;34722;52.108;5.044;2023-03-31T17:46:19;11.65;;;6.28;;
48911;SDS011;34722;52.108;5.044;2023-03-31T17:48:45;9.38;;;6.28;;
48911;SDS011;34722;52.108;5.044;2023-03-31T17:51:12;10.65;;;7.22;;
48911;SDS011;34722;52.108;5.044;2023-03-31T17:53:43;11.98;;;6.72;;
48911;SDS011;34722;52.108;5.044;2023-03-31T17:56:10;11.55;;;6.88;;
48911;SDS011;34722;52.108;5.044;2023-03-31T17:58:42;7.38;;;4.40;;
48911;SDS011;34722;52.108;5.044;2023-03-31T18:01:08;12.07;;;6.28;;
48911;SDS011;34722;52.108;5.044;2023-03-31T18:03:35;12.43;;;6.20;;
48911;SDS011;34722;52.108;5.044;2023-03-31T18:06:06;13.50;;;6.65;;
48911;SDS011;34722;52.108;5.044;2023-03-31T18:08:35;13.60;;;6.43;;
48911;SDS011;34722;52.108;5.044;2023-03-31T18:11:01;14.82;;;6.28;;
48911;SDS011;34722;52.108;5.044;2023-03-31T18:13:29;11.68;;;6.68;;
48911;SDS011;34722;52.108;5.044;2023-03-31T18:15:59;12.32;;;7.22;;
48911;SDS011;34722;52.108;5.044;2023-03-31T18:18:25;13.52;;;7.60;;
48911;SDS011;34722;52.108;5.044;2023-03-31T18:20:53;26.70;;;8.38;;
48911;SDS011;34722;52.108;5.044;2023-03-31T18:23:19;12.27;;;7.40;;
48911;SDS011;34722;52.108;5.044;2023-03-31T18:25:45;15.75;;;7.38;;
48911;SDS011;34722;52.108;5.044;2023-03-31T18:28:11;12.55;;;7.07;;
48911;SDS011;34722;52.108;5.044;2023-03-31T18:30:38;23.58;;;8.73;;
48911;SDS011;34722;52.108;5.044;2023-03-31T18:33:03;15.73;;;7.18;;
48911;SDS011;34722;52.108;5.044;2023-03-31T18:35:30;21.35;;;8.23;;
48911;SDS011;34722;52.108;5.044;2023-03-31T18:37:56;13.52;;;7.50;;
48911;SDS011;34722;52.108;5.044;2023-03-31T18:40:22;20.35;;;8.43;;
48911;SDS011;34722;52.108;5.044;2023-03-31T18:42:47;16.50;;;7.38;;
48911;SDS011;34722;52.108;5.044;2023-03-31T18:45:13;19.63;;;7.20;;
48911;SDS011;34722;52.108;5.044;2023-03-31T18:56:40;17.92;;;7.47;;
48911;SDS011;34722;52.108;5.044;2023-03-31T18:59:06;23.17;;;9.02;;
48911;SDS011;34722;52.108;5.044;2023-03-31T19:01:31;20.30;;;7.95;;
48911;SDS011;34722;52.108;5.044;2023-03-31T19:03:59;25.90;;;8.60;;
48911;SDS011;34722;52.108;5.044;2023-03-31T19:06:27;25.67;;;7.63;;
48911;SDS011;34722;52.108;5.044;2023-03-31T19:08:54;29.75;;;9.32;;
48911;SDS011;34722;52.108;5.044;2023-03-31T19:11:20;27.48;;;9.45;;
48911;SDS011;34722;52.108;5.044;2023-03-31T19:13:46;25.00;;;10.77;;
48911;SDS011;34722;52.108;5.044;2023-03-31T19:16:12;27.38;;;11.32;;
48911;SDS011;34722;52.108;5.044;2023-03-31T19:18:38;23.15;;;10.75;;
48911;SDS011;34722;52.108;5.044;2023-03-31T19:23:53;28.83;;;11.10;;
48911;SDS011;34722;52.108;5.044;2023-03-31T19:26:19;29.10;;;11.52;;
48911;SDS011;34722;52.108;5.044;2023-03-31T19:28:44;28.58;;;11.10;;
48911;SDS011;34722;52.108;5.044;2023-03-31T19:31:12;31.45;;;10.23;;
48911;SDS011;34722;52.108;5.044;2023-03-31T19:33:38;32.35;;;11.40;;
48911;SDS011;34722;52.108;5.044;2023-03-31T19:36:04;30.40;;;11.07;;
48911;SDS011;34722;52.108;5.044;2023-03-31T19:38:33;33.22;;;10.88;;
48911;SDS011;34722;52.108;5.044;2023-03-31T19:41:00;28.50;;;10.57;;
48911;SDS011;34722;52.108;5.044;2023-03-31T19:43:28;27.08;;;10.38;;
48911;SDS011;34722;52.108;5.044;2023-03-31T19:45:54;36.95;;;10.88;;
48911;SDS011;34722;52.108;5.044;2023-03-31T19:48:21;29.65;;;10.57;;
48911;SDS011;34722;52.108;5.044;2023-03-31T19:50:50;31.13;;;10.68;;
48911;SDS011;34722;52.108;5.044;2023-03-31T19:53:20;23.83;;;9.60;;
48911;SDS011;34722;52.108;5.044;2023-03-31T19:59:09;34.10;;;12.63;;
48911;SDS011;34722;52.108;5.044;2023-03-31T20:01:37;34.30;;;11.45;;
48911;SDS011;34722;52.108;5.044;2023-03-31T20:04:03;28.13;;;10.55;;
48911;SDS011;34722;52.108;5.044;2023-03-31T20:06:29;35.13;;;11.00;;
48911;SDS011;34722;52.108;5.044;2023-03-31T20:08:59;35.28;;;13.38;;
48911;SDS011;34722;52.108;5.044;2023-03-31T20:17:23;25.63;;;11.05;;
48911;SDS011;34722;52.108;5.044;2023-03-31T20:19:49;45.42;;;12.48;;
48911;SDS011;34722;52.108;5.044;2023-03-31T20:22:15;32.75;;;12.10;;
48911;SDS011;34722;52.108;5.044;2023-03-31T20:24:40;45.58;;;13.70;;
48911;SDS011;34722;52.108;5.044;2023-03-31T20:27:06;36.35;;;13.05;;
48911;SDS011;34722;52.108;5.044;2023-03-31T20:32:54;38.40;;;13.40;;
48911;SDS011;34722;52.108;5.044;2023-03-31T20:35:20;43.22;;;13.85;;
48911;SDS011;34722;52.108;5.044;2023-03-31T20:37:46;34.63;;;12.55;;
48911;SDS011;34722;52.108;5.044;2023-03-31T20:40:12;34.00;;;11.30;;
48911;SDS011;34722;52.108;5.044;2023-03-31T20:42:37;34.22;;;12.63;;
48911;SDS011;34722;52.108;5.044;2023-03-31T20:45:03;30.63;;;11.38;;
48911;SDS011;34722;52.108;5.044;2023-03-31T20:47:30;36.70;;;10.50;;
48911;SDS011;34722;52.108;5.044;2023-03-31T20:49:58;29.50;;;10.05;;
48911;SDS011;34722;52.108;5.044;2023-03-31T20:52:25;24.75;;;10.77;;
48911;SDS011;34722;52.108;5.044;2023-03-31T20:57:26;18.63;;;8.65;;
48911;SDS011;34722;52.108;5.044;2023-03-31T20:59:52;25.80;;;9.43;;
48911;SDS011;34722;52.108;5.044;2023-03-31T21:04:51;21.65;;;6.55;;
48911;SDS011;34722;52.108;5.044;2023-03-31T21:07:17;23.48;;;7.30;;
48911;SDS011;34722;52.108;5.044;2023-03-31T21:09:43;16.30;;;7.63;;
48911;SDS011;34722;52.108;5.044;2023-03-31T21:12:08;15.50;;;6.65;;
48911;SDS011;34722;52.108;5.044;2023-03-31T21:14:34;28.45;;;6.55;;
48911;SDS011;34722;52.108;5.044;2023-03-31T21:17:00;20.38;;;6.22;;
48911;SDS011;34722;52.108;5.044;2023-03-31T21:19:26;16.05;;;5.78;;
48911;SDS011;34722;52.108;5.044;2023-03-31T21:21:51;17.15;;;5.85;;
48911;SDS011;34722;52.108;5.044;2023-03-31T21:24:17;14.02;;;6.30;;
48911;SDS011;34722;52.108;5.044;2023-03-31T21:26:43;20.50;;;6.07;;
48911;SDS011;34722;52.108;5.044;2023-03-31T21:29:08;22.17;;;6.50;;
48911;SDS011;34722;52.108;5.044;2023-03-31T21:31:34;22.92;;;8.25;;
48911;SDS011;34722;52.108;5.044;2023-03-31T21:34:00;18.63;;;6.68;;
48911;SDS011;34722;52.108;5.044;2023-03-31T21:36:26;19.55;;;6.20;;
48911;SDS011;34722;52.108;5.044;2023-03-31T21:38:53;19.80;;;6.63;;
48911;SDS011;34722;52.108;5.044;2023-03-31T21:41:21;16.65;;;5.40;;
48911;SDS011;34722;52.108;5.044;2023-03-31T21:43:53;21.17;;;6.82;;
48911;SDS011;34722;52.108;5.044;2023-03-31T21:46:21;17.98;;;5.18;;
48911;SDS011;34722;52.108;5.044;2023-03-31T21:48:51;27.52;;;8.15;;
48911;SDS011;34722;52.108;5.044;2023-03-31T21:51:18;21.63;;;6.20;;
48911;SDS011;34722;52.108;5.044;2023-03-31T21:53:46;20.77;;;6.07;;
48911;SDS011;34722;52.108;5.044;2023-03-31T21:56:15;28.30;;;5.90;;
48911;SDS011;34722;52.108;5.044;2023-03-31T21:58:40;27.90;;;7.32;;
48911;SDS011;34722;52.108;5.044;2023-03-31T22:01:06;26.15;;;8.38;;
48911;SDS011;34722;52.108;5.044;2023-03-31T22:03:32;26.50;;;7.68;;
48911;SDS011;34722;52.108;5.044;2023-03-31T22:06:02;31.88;;;6.82;;
48911;SDS011;34722;52.108;5.044;2023-03-31T22:08:30;36.25;;;9.27;;
48911;SDS011;34722;52.108;5.044;2023-03-31T22:10:59;26.00;;;7.50;;
48911;SDS011;34722;52.108;5.044;2023-03-31T22:13:26;41.40;;;8.75;;
48911;SDS011;34722;52.108;5.044;2023-03-31T22:15:52;41.63;;;10.52;;
48911;SDS011;34722;52.108;5.044;2023-03-31T22:18:18;38.75;;;9.15;;
48911;SDS011;34722;52.108;5.044;2023-03-31T22:20:46;45.25;;;10.90;;
48911;SDS011;34722;52.108;5.044;2023-03-31T22:23:12;51.55;;;10.80;;
48911;SDS011;34722;52.108;5.044;2023-03-31T22:25:38;49.35;;;10.90;;
48911;SDS011;34722;52.108;5.044;2023-03-31T22:28:05;46.33;;;13.63;;
48911;SDS011;34722;52.108;5.044;2023-03-31T22:30:34;47.25;;;11.65;;
48911;SDS011;34722;52.108;5.044;2023-03-31T22:33:00;52.22;;;14.07;;
48911;SDS011;34722;52.108;5.044;2023-03-31T22:35:26;44.80;;;12.82;;
48911;SDS011;34722;52.108;5.044;2023-03-31T22:37:51;57.95;;;13.98;;
48911;SDS011;34722;52.108;5.044;2023-03-31T22:40:17;54.08;;;14.73;;
48911;SDS011;34722;52.108;5.044;2023-03-31T22:42:43;41.05;;;14.40;;
48911;SDS011;34722;52.108;5.044;2023-03-31T22:45:08;47.10;;;15.90;;
48911;SDS011;34722;52.108;5.044;2023-03-31T22:47:34;49.17;;;15.65;;
48911;SDS011;34722;52.108;5.044;2023-03-31T22:50:00;44.55;;;14.57;;
48911;SDS011;34722;52.108;5.044;2023-03-31T22:52:36;44.70;;;14.98;;
48911;SDS011;34722;52.108;5.044;2023-03-31T22:55:02;50.38;;;14.93;;
48911;SDS011;34722;52.108;5.044;2023-03-31T22:57:28;45.58;;;14.10;;
48911;SDS011;34722;52.108;5.044;2023-03-31T22:59:54;52.95;;;14.65;;
48911;SDS011;34722;52.108;5.044;2023-03-31T23:02:20;48.53;;;14.88;;
48911;SDS011;34722;52.108;5.044;2023-03-31T23:04:46;53.72;;;17.38;;
48911;SDS011;34722;52.108;5.044;2023-03-31T23:07:11;42.38;;;16.65;;
48911;SDS011;34722;52.108;5.044;2023-03-31T23:09:40;52.08;;;15.07;;
48911;SDS011;34722;52.108;5.044;2023-03-31T23:12:06;57.15;;;17.45;;
48911;SDS011;34722;52.108;5.044;2023-03-31T23:14:31;55.60;;;17.00;;
48911;SDS011;34722;52.108;5.044;2023-03-31T23:16:57;54.88;;;16.67;;
48911;SDS011;34722;52.108;5.044;2023-03-31T23:51:08;59.00;;;18.17;;
48911;SDS011;34722;52.108;5.044;2023-03-31T23:53:34;46.65;;;17.23;;
48911;SDS011;34722;52.108;5.044;2023-03-31T23:56:01;46.35;;;17.05;;
48911;SDS011;34722;52.108;5.044;2023-03-31T23:58:30;48.50;;;16.83;;
